sensor_id;sensor_type;location;lat;lon;timestamp;pressure;altitude;pressure_sealevel;temperature;humidity
54882;BME280;40775;51.448;4.742;2023-12-20T00:02:18;101713.81;;;7.30;100.00
54882;BME280;40775;51.448;4.742;2023-12-20T00:04:45;101719.09;;;7.31;100.00
54882;BME280;40775;51.448;4.742;2023-12-20T00:07:12;101718.94;;;7.28;100.00
54882;BME280;40775;51.448;4.742;2023-12-20T00:09:39;101723.50;;;7.32;100.00
54882;BME280;40775;51.448;4.742;2023-12-20T00:12:06;101716.41;;;7.30;100.00
54882;BME280;40775;51.448;4.742;2023-12-20T00:14:33;101720.81;;;7.31;100.00
54882;BME280;40775;51.448;4.742;2023-12-20T00:17:01;101706.09;;;7.33;100.00
54882;BME280;40775;51.448;4.742;2023-12-20T00:19:28;101700.47;;;7.24;100.00
54882;BME280;40775;51.448;4.742;2023-12-20T00:21:55;101708.16;;;7.21;100.00
54882;BME280;40775;51.448;4.742;2023-12-20T00:24:22;101718.66;;;7.22;100.00
54882;BME280;40775;51.448;4.742;2023-12-20T00:26:49;101714.34;;;7.23;100.00
54882;BME280;40775;51.448;4.742;2023-12-20T00:29:16;101711.88;;;7.26;100.00
54882;BME280;40775;51.448;4.742;2023-12-20T00:31:43;101709.13;;;7.23;100.00
54882;BME280;40775;51.448;4.742;2023-12-20T00:34:10;101706.44;;;7.21;100.00
54882;BME280;40775;51.448;4.742;2023-12-20T00:36:37;101704.03;;;7.26;100.00
54882;BME280;40775;51.448;4.742;2023-12-20T00:39:05;101705.00;;;7.28;100.00
54882;BME280;40775;51.448;4.742;2023-12-20T00:41:33;101705.69;;;7.24;100.00
54882;BME280;40775;51.448;4.742;2023-12-20T00:44:00;101698.66;;;7.23;100.00
54882;BME280;40775;51.448;4.742;2023-12-20T00:46:27;101691.50;;;7.19;100.00
54882;BME280;40775;51.448;4.742;2023-12-20T00:48:54;101687.13;;;7.18;100.00
54882;BME280;40775;51.448;4.742;2023-12-20T00:51:22;101691.13;;;7.11;100.00
54882;BME280;40775;51.448;4.742;2023-12-20T00:53:50;101691.66;;;7.04;100.00
54882;BME280;40775;51.448;4.742;2023-12-20T00:56:21;101689.88;;;7.03;100.00
54882;BME280;40775;51.448;4.742;2023-12-20T00:58:48;101689.59;;;6.97;100.00
54882;BME280;40775;51.448;4.742;2023-12-20T01:01:15;101690.78;;;7.03;100.00
54882;BME280;40775;51.448;4.742;2023-12-20T01:03:43;101684.59;;;7.01;100.00
54882;BME280;40775;51.448;4.742;2023-12-20T01:06:10;101691.09;;;6.92;100.00
54882;BME280;40775;51.448;4.742;2023-12-20T01:08:37;101703.84;;;6.86;100.00
54882;BME280;40775;51.448;4.742;2023-12-20T01:11:05;101703.91;;;6.87;100.00
54882;BME280;40775;51.448;4.742;2023-12-20T01:13:33;101702.03;;;6.85;100.00
54882;BME280;40775;51.448;4.742;2023-12-20T01:16:00;101704.50;;;6.81;100.00
54882;BME280;40775;51.448;4.742;2023-12-20T01:18:27;101708.81;;;6.81;100.00
54882;BME280;40775;51.448;4.742;2023-12-20T01:20:54;101712.38;;;6.83;100.00
54882;BME280;40775;51.448;4.742;2023-12-20T01:23:21;101705.31;;;6.80;100.00
54882;BME280;40775;51.448;4.742;2023-12-20T01:25:48;101711.50;;;6.82;100.00
54882;BME280;40775;51.448;4.742;2023-12-20T01:28:16;101709.84;;;6.85;100.00
54882;BME280;40775;51.448;4.742;2023-12-20T01:30:43;101707.91;;;6.80;100.00
54882;BME280;40775;51.448;4.742;2023-12-20T01:33:10;101703.66;;;6.82;100.00
54882;BME280;40775;51.448;4.742;2023-12-20T01:35:37;101709.63;;;6.80;100.00
54882;BME280;40775;51.448;4.742;2023-12-20T01:38:04;101709.56;;;6.78;100.00
54882;BME280;40775;51.448;4.742;2023-12-20T01:40:31;101699.19;;;6.80;100.00
54882;BME280;40775;51.448;4.742;2023-12-20T01:43:09;101698.22;;;6.78;100.00
54882;BME280;40775;51.448;4.742;2023-12-20T01:45:36;101695.53;;;6.76;100.00
54882;BME280;40775;51.448;4.742;2023-12-20T01:48:05;101694.94;;;6.82;100.00
54882;BME280;40775;51.448;4.742;2023-12-20T01:50:32;101695.41;;;6.73;100.00
54882;BME280;40775;51.448;4.742;2023-12-20T01:53:02;101698.75;;;6.71;100.00
54882;BME280;40775;51.448;4.742;2023-12-20T01:55:33;101701.81;;;6.80;100.00
54882;BME280;40775;51.448;4.742;2023-12-20T01:58:01;101705.09;;;6.76;100.00
54882;BME280;40775;51.448;4.742;2023-12-20T02:00:30;101709.97;;;6.86;100.00
54882;BME280;40775;51.448;4.742;2023-12-20T02:03:01;101707.25;;;6.85;100.00
54882;BME280;40775;51.448;4.742;2023-12-20T02:05:30;101701.13;;;6.84;100.00
54882;BME280;40775;51.448;4.742;2023-12-20T02:07:58;101708.06;;;6.83;100.00
54882;BME280;40775;51.448;4.742;2023-12-20T02:10:25;101694.38;;;6.88;100.00
54882;BME280;40775;51.448;4.742;2023-12-20T02:12:53;101701.94;;;6.83;100.00
54882;BME280;40775;51.448;4.742;2023-12-20T02:15:20;101696.16;;;6.89;100.00
54882;BME280;40775;51.448;4.742;2023-12-20T02:17:48;101704.88;;;6.89;100.00
54882;BME280;40775;51.448;4.742;2023-12-20T02:20:15;101702.28;;;6.89;100.00
54882;BME280;40775;51.448;4.742;2023-12-20T02:22:42;101697.22;;;6.92;100.00
54882;BME280;40775;51.448;4.742;2023-12-20T02:25:09;101701.59;;;6.93;100.00
54882;BME280;40775;51.448;4.742;2023-12-20T02:27:37;101702.66;;;6.97;100.00
54882;BME280;40775;51.448;4.742;2023-12-20T02:30:05;101697.50;;;6.98;100.00
54882;BME280;40775;51.448;4.742;2023-12-20T02:32:32;101701.22;;;7.03;100.00
54882;BME280;40775;51.448;4.742;2023-12-20T02:34:59;101706.56;;;7.06;100.00
54882;BME280;40775;51.448;4.742;2023-12-20T02:37:26;101698.59;;;7.03;100.00
54882;BME280;40775;51.448;4.742;2023-12-20T02:39:53;101705.75;;;7.07;100.00
54882;BME280;40775;51.448;4.742;2023-12-20T02:42:20;101699.56;;;7.05;100.00
54882;BME280;40775;51.448;4.742;2023-12-20T02:44:47;101696.13;;;7.06;100.00
54882;BME280;40775;51.448;4.742;2023-12-20T02:47:14;101697.72;;;7.03;100.00
54882;BME280;40775;51.448;4.742;2023-12-20T02:49:41;101689.13;;;7.05;100.00
54882;BME280;40775;51.448;4.742;2023-12-20T02:52:09;101702.19;;;7.05;100.00
54882;BME280;40775;51.448;4.742;2023-12-20T02:54:36;101695.38;;;7.09;100.00
54882;BME280;40775;51.448;4.742;2023-12-20T02:57:03;101692.84;;;7.10;100.00
54882;BME280;40775;51.448;4.742;2023-12-20T02:59:30;101698.06;;;7.10;100.00
54882;BME280;40775;51.448;4.742;2023-12-20T03:01:57;101690.31;;;7.12;100.00
54882;BME280;40775;51.448;4.742;2023-12-20T03:04:24;101692.13;;;7.13;100.00
54882;BME280;40775;51.448;4.742;2023-12-20T03:06:52;101695.63;;;7.13;100.00
54882;BME280;40775;51.448;4.742;2023-12-20T03:09:19;101691.44;;;7.17;100.00
54882;BME280;40775;51.448;4.742;2023-12-20T03:11:46;101687.94;;;7.17;100.00
54882;BME280;40775;51.448;4.742;2023-12-20T03:14:13;101689.81;;;7.19;100.00
54882;BME280;40775;51.448;4.742;2023-12-20T03:16:40;101683.81;;;7.22;100.00
54882;BME280;40775;51.448;4.742;2023-12-20T03:19:07;101668.22;;;7.23;100.00
54882;BME280;40775;51.448;4.742;2023-12-20T03:21:34;101682.94;;;7.21;100.00
54882;BME280;40775;51.448;4.742;2023-12-20T03:24:01;101685.53;;;7.21;100.00
54882;BME280;40775;51.448;4.742;2023-12-20T03:26:28;101681.28;;;7.23;100.00
54882;BME280;40775;51.448;4.742;2023-12-20T03:28:55;101684.72;;;7.22;100.00
54882;BME280;40775;51.448;4.742;2023-12-20T03:31:22;101685.75;;;7.26;100.00
54882;BME280;40775;51.448;4.742;2023-12-20T03:33:49;101683.75;;;7.20;100.00
54882;BME280;40775;51.448;4.742;2023-12-20T03:36:17;101677.63;;;7.20;100.00
54882;BME280;40775;51.448;4.742;2023-12-20T03:38:44;101684.44;;;7.16;100.00
54882;BME280;40775;51.448;4.742;2023-12-20T03:41:12;101676.69;;;7.18;100.00
54882;BME280;40775;51.448;4.742;2023-12-20T03:43:39;101679.06;;;7.13;100.00
54882;BME280;40775;51.448;4.742;2023-12-20T03:46:08;101665.84;;;7.10;100.00
54882;BME280;40775;51.448;4.742;2023-12-20T03:48:35;101670.03;;;7.06;100.00
54882;BME280;40775;51.448;4.742;2023-12-20T03:51:02;101674.50;;;7.09;100.00
54882;BME280;40775;51.448;4.742;2023-12-20T03:53:29;101672.72;;;7.08;100.00
54882;BME280;40775;51.448;4.742;2023-12-20T03:55:56;101682.47;;;7.12;100.00
54882;BME280;40775;51.448;4.742;2023-12-20T03:58:23;101677.88;;;7.06;100.00
54882;BME280;40775;51.448;4.742;2023-12-20T04:00:50;101684.03;;;7.08;100.00
54882;BME280;40775;51.448;4.742;2023-12-20T04:03:17;101687.47;;;7.07;100.00
54882;BME280;40775;51.448;4.742;2023-12-20T04:05:44;101678.97;;;7.11;100.00
54882;BME280;40775;51.448;4.742;2023-12-20T04:08:12;101682.25;;;7.07;100.00
54882;BME280;40775;51.448;4.742;2023-12-20T04:10:39;101682.88;;;7.02;100.00
54882;BME280;40775;51.448;4.742;2023-12-20T04:13:06;101679.38;;;7.01;100.00
54882;BME280;40775;51.448;4.742;2023-12-20T04:15:33;101682.13;;;7.04;100.00
54882;BME280;40775;51.448;4.742;2023-12-20T04:18:00;101683.75;;;7.02;100.00
54882;BME280;40775;51.448;4.742;2023-12-20T04:20:27;101685.47;;;7.02;100.00
54882;BME280;40775;51.448;4.742;2023-12-20T04:22:54;101678.88;;;6.91;100.00
54882;BME280;40775;51.448;4.742;2023-12-20T04:25:21;101685.03;;;6.93;100.00
54882;BME280;40775;51.448;4.742;2023-12-20T04:27:48;101680.66;;;6.92;100.00
54882;BME280;40775;51.448;4.742;2023-12-20T04:30:15;101678.03;;;6.92;100.00
54882;BME280;40775;51.448;4.742;2023-12-20T04:32:42;101678.25;;;6.96;100.00
54882;BME280;40775;51.448;4.742;2023-12-20T04:35:10;101677.81;;;6.87;100.00
54882;BME280;40775;51.448;4.742;2023-12-20T04:37:37;101676.94;;;6.87;100.00
54882;BME280;40775;51.448;4.742;2023-12-20T04:40:04;101671.38;;;6.80;100.00
54882;BME280;40775;51.448;4.742;2023-12-20T04:42:32;101677.81;;;6.87;100.00
54882;BME280;40775;51.448;4.742;2023-12-20T04:44:59;101674.31;;;6.87;100.00
54882;BME280;40775;51.448;4.742;2023-12-20T04:47:26;101666.50;;;6.87;100.00
54882;BME280;40775;51.448;4.742;2023-12-20T04:49:54;101677.81;;;6.87;100.00
54882;BME280;40775;51.448;4.742;2023-12-20T04:52:21;101679.47;;;6.85;100.00
54882;BME280;40775;51.448;4.742;2023-12-20T04:54:48;101677.97;;;6.90;100.00
54882;BME280;40775;51.448;4.742;2023-12-20T04:57:15;101680.72;;;6.75;100.00
54882;BME280;40775;51.448;4.742;2023-12-20T04:59:42;101662.59;;;6.78;100.00
54882;BME280;40775;51.448;4.742;2023-12-20T05:02:09;101672.13;;;6.78;100.00
54882;BME280;40775;51.448;4.742;2023-12-20T05:04:36;101665.28;;;6.80;100.00
54882;BME280;40775;51.448;4.742;2023-12-20T05:07:03;101654.75;;;6.78;100.00
54882;BME280;40775;51.448;4.742;2023-12-20T05:09:32;101651.31;;;6.79;100.00
54882;BME280;40775;51.448;4.742;2023-12-20T05:12:00;101657.50;;;6.81;100.00
54882;BME280;40775;51.448;4.742;2023-12-20T05:14:27;101655.66;;;6.79;100.00
54882;BME280;40775;51.448;4.742;2023-12-20T05:16:54;101652.28;;;6.81;100.00
54882;BME280;40775;51.448;4.742;2023-12-20T05:19:21;101641.94;;;6.83;100.00
54882;BME280;40775;51.448;4.742;2023-12-20T05:21:48;101642.47;;;6.76;100.00
54882;BME280;40775;51.448;4.742;2023-12-20T05:24:16;101643.44;;;6.78;100.00
54882;BME280;40775;51.448;4.742;2023-12-20T05:26:43;101653.19;;;6.82;100.00
54882;BME280;40775;51.448;4.742;2023-12-20T05:29:10;101664.38;;;6.79;100.00
54882;BME280;40775;51.448;4.742;2023-12-20T05:31:37;101652.28;;;6.81;100.00
54882;BME280;40775;51.448;4.742;2023-12-20T05:34:04;101651.25;;;6.78;100.00
54882;BME280;40775;51.448;4.742;2023-12-20T05:36:32;101652.81;;;6.74;100.00
54882;BME280;40775;51.448;4.742;2023-12-20T05:38:59;101648.28;;;6.70;100.00
54882;BME280;40775;51.448;4.742;2023-12-20T05:41:26;101641.50;;;6.74;100.00
54882;BME280;40775;51.448;4.742;2023-12-20T05:43:53;101644.56;;;6.65;100.00
54882;BME280;40775;51.448;4.742;2023-12-20T05:46:20;101646.50;;;6.69;100.00
54882;BME280;40775;51.448;4.742;2023-12-20T05:48:48;101649.84;;;6.67;100.00
54882;BME280;40775;51.448;4.742;2023-12-20T05:51:16;101654.25;;;6.68;100.00
54882;BME280;40775;51.448;4.742;2023-12-20T05:53:43;101661.13;;;6.66;100.00
54882;BME280;40775;51.448;4.742;2023-12-20T05:56:11;101659.47;;;6.68;100.00
54882;BME280;40775;51.448;4.742;2023-12-20T05:58:39;101665.22;;;6.61;100.00
54882;BME280;40775;51.448;4.742;2023-12-20T06:01:06;101659.91;;;6.59;100.00
54882;BME280;40775;51.448;4.742;2023-12-20T06:03:35;101648.50;;;6.57;100.00
54882;BME280;40775;51.448;4.742;2023-12-20T06:06:07;101656.56;;;6.62;100.00
54882;BME280;40775;51.448;4.742;2023-12-20T06:08:42;101642.03;;;6.67;100.00
54882;BME280;40775;51.448;4.742;2023-12-20T06:11:10;101646.19;;;6.63;100.00
54882;BME280;40775;51.448;4.742;2023-12-20T06:13:37;101652.31;;;6.64;100.00
54882;BME280;40775;51.448;4.742;2023-12-20T06:16:06;101657.38;;;6.61;100.00
54882;BME280;40775;51.448;4.742;2023-12-20T06:18:34;101660.81;;;6.60;100.00
54882;BME280;40775;51.448;4.742;2023-12-20T06:21:01;101659.31;;;6.65;100.00
54882;BME280;40775;51.448;4.742;2023-12-20T06:23:29;101666.25;;;6.64;100.00
54882;BME280;40775;51.448;4.742;2023-12-20T06:25:56;101657.38;;;6.61;100.00
54882;BME280;40775;51.448;4.742;2023-12-20T06:28:23;101657.69;;;6.67;100.00
54882;BME280;40775;51.448;4.742;2023-12-20T06:30:50;101674.09;;;6.64;100.00
54882;BME280;40775;51.448;4.742;2023-12-20T06:33:19;101656.84;;;6.68;100.00
54882;BME280;40775;51.448;4.742;2023-12-20T06:35:49;101662.91;;;6.67;100.00
54882;BME280;40775;51.448;4.742;2023-12-20T06:38:17;101654.25;;;6.68;100.00
54882;BME280;40775;51.448;4.742;2023-12-20T06:40:45;101643.66;;;6.65;100.00
54882;BME280;40775;51.448;4.742;2023-12-20T06:43:13;101646.50;;;6.69;100.00
54882;BME280;40775;51.448;4.742;2023-12-20T06:45:58;101671.38;;;7.72;100.00
54882;BME280;40775;51.448;4.742;2023-12-20T06:48:27;101665.22;;;9.37;100.00
54882;BME280;40775;51.448;4.742;2023-12-20T06:50:54;101652.09;;;10.33;100.00
54882;BME280;40775;51.448;4.742;2023-12-20T06:53:21;101647.28;;;10.99;100.00
54882;BME280;40775;51.448;4.742;2023-12-20T06:55:48;101643.34;;;11.41;100.00
54882;BME280;40775;51.448;4.742;2023-12-20T06:58:15;101632.00;;;11.74;100.00
54882;BME280;40775;51.448;4.742;2023-12-20T07:00:43;101627.44;;;11.98;100.00
54882;BME280;40775;51.448;4.742;2023-12-20T07:03:10;101612.16;;;12.17;100.00
54882;BME280;40775;51.448;4.742;2023-12-20T07:05:38;101592.34;;;12.32;100.00
54882;BME280;40775;51.448;4.742;2023-12-20T07:08:06;101585.47;;;12.36;100.00
54882;BME280;40775;51.448;4.742;2023-12-20T07:10:33;101591.75;;;12.43;100.00
54882;BME280;40775;51.448;4.742;2023-12-20T07:13:00;101594.56;;;12.50;100.00
54882;BME280;40775;51.448;4.742;2023-12-20T07:15:27;101593.88;;;12.59;100.00
54882;BME280;40775;51.448;4.742;2023-12-20T07:17:56;101598.44;;;12.64;100.00
54882;BME280;40775;51.448;4.742;2023-12-20T07:20:23;101601.22;;;12.71;100.00
54882;BME280;40775;51.448;4.742;2023-12-20T07:22:50;101606.56;;;12.74;100.00
54882;BME280;40775;51.448;4.742;2023-12-20T07:25:17;101602.16;;;12.74;100.00
54882;BME280;40775;51.448;4.742;2023-12-20T07:27:44;101602.28;;;12.79;100.00
54882;BME280;40775;51.448;4.742;2023-12-20T07:30:18;101606.69;;;12.80;100.00
54882;BME280;40775;51.448;4.742;2023-12-20T07:32:45;101601.44;;;12.81;100.00
54882;BME280;40775;51.448;4.742;2023-12-20T07:35:21;101601.56;;;12.86;100.00
54882;BME280;40775;51.448;4.742;2023-12-20T07:37:48;101612.97;;;12.86;100.00
54882;BME280;40775;51.448;4.742;2023-12-20T07:40:15;101604.19;;;12.86;100.00
54882;BME280;40775;51.448;4.742;2023-12-20T07:42:44;101609.63;;;12.92;100.00
54882;BME280;40775;51.448;4.742;2023-12-20T07:45:11;101616.72;;;12.94;100.00
54882;BME280;40775;51.448;4.742;2023-12-20T07:47:38;101613.25;;;12.97;100.00
54882;BME280;40775;51.448;4.742;2023-12-20T07:50:06;101613.31;;;13.00;100.00
54882;BME280;40775;51.448;4.742;2023-12-20T07:52:33;101616.81;;;12.99;100.00
54882;BME280;40775;51.448;4.742;2023-12-20T07:55:00;101610.69;;;13.00;100.00
54882;BME280;40775;51.448;4.742;2023-12-20T07:57:29;101615.13;;;13.03;100.00
54882;BME280;40775;51.448;4.742;2023-12-20T07:59:57;101605.09;;;12.86;100.00
54882;BME280;40775;51.448;4.742;2023-12-20T08:02:24;101610.66;;;12.98;100.00
54882;BME280;40775;51.448;4.742;2023-12-20T08:04:51;101612.25;;;12.92;100.00
54882;BME280;40775;51.448;4.742;2023-12-20T08:07:18;101603.44;;;12.90;100.00
54882;BME280;40775;51.448;4.742;2023-12-20T08:09:46;101592.53;;;12.75;100.00
54882;BME280;40775;51.448;4.742;2023-12-20T08:12:13;101590.88;;;12.80;100.00
54882;BME280;40775;51.448;4.742;2023-12-20T08:14:40;101594.69;;;12.92;100.00
54882;BME280;40775;51.448;4.742;2023-12-20T08:17:07;101601.78;;;12.95;100.00
54882;BME280;40775;51.448;4.742;2023-12-20T08:19:34;101597.84;;;12.78;100.00
54882;BME280;40775;51.448;4.742;2023-12-20T08:22:01;101604.19;;;12.86;100.00
54882;BME280;40775;51.448;4.742;2023-12-20T08:24:30;101603.81;;;12.69;100.00
54882;BME280;40775;51.448;4.742;2023-12-20T08:26:57;101610.13;;;12.76;100.00
54882;BME280;40775;51.448;4.742;2023-12-20T08:29:24;101617.66;;;12.98;100.00
54882;BME280;40775;51.448;4.742;2023-12-20T08:31:55;101622.00;;;12.96;100.00
54882;BME280;40775;51.448;4.742;2023-12-20T08:34:23;101625.47;;;12.93;100.00
54882;BME280;40775;51.448;4.742;2023-12-20T08:36:54;101617.53;;;12.92;100.00
54882;BME280;40775;51.448;4.742;2023-12-20T08:39:21;101615.59;;;12.85;100.00
54882;BME280;40775;51.448;4.742;2023-12-20T08:41:48;101607.88;;;12.92;100.00
54882;BME280;40775;51.448;4.742;2023-12-20T08:44:15;101608.00;;;12.98;100.00
54882;BME280;40775;51.448;4.742;2023-12-20T08:46:42;101614.19;;;12.99;100.00
54882;BME280;40775;51.448;4.742;2023-12-20T08:49:09;101609.63;;;12.92;100.00
54882;BME280;40775;51.448;4.742;2023-12-20T08:51:37;101592.78;;;12.87;100.00
54882;BME280;40775;51.448;4.742;2023-12-20T08:54:07;101605.16;;;12.88;100.00
54882;BME280;40775;51.448;4.742;2023-12-20T08:56:35;101608.69;;;12.90;100.00
54882;BME280;40775;51.448;4.742;2023-12-20T08:59:02;101611.31;;;12.88;100.00
54882;BME280;40775;51.448;4.742;2023-12-20T09:01:29;101605.00;;;12.83;100.00
54882;BME280;40775;51.448;4.742;2023-12-20T09:03:56;101602.13;;;12.73;100.00
54882;BME280;40775;51.448;4.742;2023-12-20T09:06:23;101601.28;;;12.74;100.00
54882;BME280;40775;51.448;4.742;2023-12-20T09:08:52;101606.78;;;12.84;100.00
54882;BME280;40775;51.448;4.742;2023-12-20T09:11:19;101605.69;;;12.75;100.00
54882;BME280;40775;51.448;4.742;2023-12-20T09:13:46;101609.50;;;12.87;100.00
54882;BME280;40775;51.448;4.742;2023-12-20T09:16:13;101624.66;;;12.96;100.00
54882;BME280;40775;51.448;4.742;2023-12-20T09:18:42;101627.34;;;12.99;100.00
54882;BME280;40775;51.448;4.742;2023-12-20T09:21:10;101623.75;;;12.95;100.00
54882;BME280;40775;51.448;4.742;2023-12-20T09:23:37;101611.44;;;12.94;100.00
54882;BME280;40775;51.448;4.742;2023-12-20T09:26:04;101609.75;;;12.98;100.00
54882;BME280;40775;51.448;4.742;2023-12-20T09:28:31;101613.28;;;12.98;100.00
54882;BME280;40775;51.448;4.742;2023-12-20T09:31:04;101612.47;;;13.01;100.00
54882;BME280;40775;51.448;4.742;2023-12-20T09:33:33;101607.91;;;12.94;100.00
54882;BME280;40775;51.448;4.742;2023-12-20T09:36:00;101612.19;;;12.89;100.00
54882;BME280;40775;51.448;4.742;2023-12-20T09:38:27;101598.94;;;12.87;100.00
54882;BME280;40775;51.448;4.742;2023-12-20T09:40:55;101595.03;;;12.68;100.00
54882;BME280;40775;51.448;4.742;2023-12-20T09:43:24;101593.97;;;12.60;100.00
54882;BME280;40775;51.448;4.742;2023-12-20T09:46:00;101581.84;;;12.68;100.00
54882;BME280;40775;51.448;4.742;2023-12-20T09:48:29;101584.66;;;12.76;100.00
54882;BME280;40775;51.448;4.742;2023-12-20T09:50:57;101596.22;;;12.83;100.00
54882;BME280;40775;51.448;4.742;2023-12-20T09:53:25;101596.84;;;12.71;100.00
54882;BME280;40775;51.448;4.742;2023-12-20T09:55:58;101603.03;;;12.73;100.00
54882;BME280;40775;51.448;4.742;2023-12-20T09:58:28;101610.16;;;12.77;100.00
54882;BME280;40775;51.448;4.742;2023-12-20T10:00:56;101597.84;;;12.78;100.00
54882;BME280;40775;51.448;4.742;2023-12-20T10:03:25;101600.44;;;12.75;100.00
54882;BME280;40775;51.448;4.742;2023-12-20T10:05:57;101605.97;;;12.87;100.00
54882;BME280;40775;51.448;4.742;2023-12-20T10:08:25;101590.00;;;12.79;100.00
54882;BME280;40775;51.448;4.742;2023-12-20T10:10:52;101588.75;;;12.63;100.00
54882;BME280;40775;51.448;4.742;2023-12-20T10:13:19;101598.63;;;12.72;100.00
54882;BME280;40775;51.448;4.742;2023-12-20T10:15:46;101598.56;;;12.33;100.00
54882;BME280;40775;51.448;4.742;2023-12-20T10:18:14;101595.38;;;12.48;100.00
54882;BME280;40775;51.448;4.742;2023-12-20T10:20:42;101602.19;;;12.38;100.00
54882;BME280;40775;51.448;4.742;2023-12-20T10:23:11;101602.41;;;12.47;100.00
54882;BME280;40775;51.448;4.742;2023-12-20T10:25:38;101599.88;;;12.17;100.00
54882;BME280;40775;51.448;4.742;2023-12-20T10:28:16;101585.06;;;12.21;100.00
54882;BME280;40775;51.448;4.742;2023-12-20T10:30:46;101589.84;;;12.35;100.00
54882;BME280;40775;51.448;4.742;2023-12-20T10:33:13;101579.63;;;12.49;100.00
54882;BME280;40775;51.448;4.742;2023-12-20T10:35:40;101582.25;;;12.49;100.00
54882;BME280;40775;51.448;4.742;2023-12-20T10:38:15;101581.31;;;12.47;100.00
54882;BME280;40775;51.448;4.742;2023-12-20T10:40:42;101574.56;;;12.58;100.00
54882;BME280;40775;51.448;4.742;2023-12-20T10:43:12;101564.47;;;12.39;100.00
54882;BME280;40775;51.448;4.742;2023-12-20T10:45:42;101563.06;;;12.55;100.00
54882;BME280;40775;51.448;4.742;2023-12-20T10:48:11;101555.63;;;12.37;100.00
54882;BME280;40775;51.448;4.742;2023-12-20T10:50:41;101549.22;;;12.27;100.00
54882;BME280;40775;51.448;4.742;2023-12-20T10:53:08;101552.56;;;12.56;100.00
54882;BME280;40775;51.448;4.742;2023-12-20T10:55:35;101557.59;;;12.46;100.00
54882;BME280;40775;51.448;4.742;2023-12-20T10:58:08;101560.34;;;12.50;100.00
54882;BME280;40775;51.448;4.742;2023-12-20T11:00:45;101548.09;;;12.52;100.00
54882;BME280;40775;51.448;4.742;2023-12-20T11:03:13;101538.72;;;12.63;100.00
54882;BME280;40775;51.448;4.742;2023-12-20T11:06:00;101546.69;;;12.66;100.00
54882;BME280;40775;51.448;4.742;2023-12-20T11:08:44;101548.59;;;12.74;100.00
54882;BME280;40775;51.448;4.742;2023-12-20T11:14:39;101537.78;;;12.61;100.00
54882;BME280;40775;51.448;4.742;2023-12-20T11:17:11;101541.34;;;12.63;100.00
54882;BME280;40775;51.448;4.742;2023-12-20T11:20:06;101542.34;;;12.68;100.00
54882;BME280;40775;51.448;4.742;2023-12-20T11:22:34;101548.72;;;12.80;100.00
54882;BME280;40775;51.448;4.742;2023-12-20T11:25:10;101540.97;;;12.87;100.00
54882;BME280;40775;51.448;4.742;2023-12-20T11:27:42;101538.41;;;12.89;100.00
54882;BME280;40775;51.448;4.742;2023-12-20T11:30:15;101536.47;;;12.82;100.00
54882;BME280;40775;51.448;4.742;2023-12-20T11:32:46;101530.25;;;12.78;100.00
54882;BME280;40775;51.448;4.742;2023-12-20T11:37:41;101523.47;;;12.89;100.00
54882;BME280;40775;51.448;4.742;2023-12-20T11:40:16;101530.56;;;12.92;100.00
54882;BME280;40775;51.448;4.742;2023-12-20T11:42:46;101518.13;;;12.86;100.00
54882;BME280;40775;51.448;4.742;2023-12-20T11:45:19;101517.38;;;12.92;100.00
54882;BME280;40775;51.448;4.742;2023-12-20T11:47:50;101517.50;;;12.98;100.00
54882;BME280;40775;51.448;4.742;2023-12-20T11:50:19;101519.91;;;12.87;100.00
54882;BME280;40775;51.448;4.742;2023-12-20T11:52:48;101522.59;;;12.89;100.00
54882;BME280;40775;51.448;4.742;2023-12-20T11:55:15;101510.28;;;12.88;100.00
54882;BME280;40775;51.448;4.742;2023-12-20T11:57:43;101524.44;;;12.93;100.00
54882;BME280;40775;51.448;4.742;2023-12-20T12:00:14;101521.81;;;12.93;100.00
54882;BME280;40775;51.448;4.742;2023-12-20T12:02:41;101518.94;;;12.84;100.00
54882;BME280;40775;51.448;4.742;2023-12-20T12:05:10;101509.25;;;12.83;100.00
54882;BME280;40775;51.448;4.742;2023-12-20T12:07:38;101506.69;;;12.86;100.00
54882;BME280;40775;51.448;4.742;2023-12-20T12:10:06;101503.25;;;12.88;100.00
54882;BME280;40775;51.448;4.742;2023-12-20T12:12:33;101492.53;;;12.81;100.00
54882;BME280;40775;51.448;4.742;2023-12-20T12:15:00;101484.25;;;12.62;100.00
54882;BME280;40775;51.448;4.742;2023-12-20T12:17:30;101490.28;;;12.58;100.00
54882;BME280;40775;51.448;4.742;2023-12-20T12:20:05;101486.09;;;12.66;100.00
54882;BME280;40775;51.448;4.742;2023-12-20T12:22:33;101485.28;;;12.71;100.00
54882;BME280;40775;51.448;4.742;2023-12-20T12:25:10;101493.38;;;12.80;100.00
54882;BME280;40775;51.448;4.742;2023-12-20T12:27:42;101487.25;;;12.81;100.00
54882;BME280;40775;51.448;4.742;2023-12-20T12:30:10;101491.28;;;12.63;100.00
54882;BME280;40775;51.448;4.742;2023-12-20T12:32:40;101493.19;;;12.71;100.00
54882;BME280;40775;51.448;4.742;2023-12-20T12:35:08;101484.00;;;12.52;100.00
54882;BME280;40775;51.448;4.742;2023-12-20T12:37:39;101482.47;;;12.61;100.00
54882;BME280;40775;51.448;4.742;2023-12-20T12:40:14;101477.94;;;12.56;100.00
54882;BME280;40775;51.448;4.742;2023-12-20T12:42:43;101464.81;;;12.59;100.00
54882;BME280;40775;51.448;4.742;2023-12-20T12:45:11;101470.41;;;12.73;100.00
54882;BME280;40775;51.448;4.742;2023-12-20T12:47:39;101472.41;;;12.84;100.00
54882;BME280;40775;51.448;4.742;2023-12-20T12:50:07;101475.56;;;12.66;100.00
54882;BME280;40775;51.448;4.742;2023-12-20T12:52:34;101467.66;;;12.66;100.00
54882;BME280;40775;51.448;4.742;2023-12-20T12:55:05;101454.72;;;12.79;100.00
54882;BME280;40775;51.448;4.742;2023-12-20T12:57:33;101460.91;;;12.81;100.00